»·PEaware :: SKY226 KPRC-KHII

SKY226 :: KPRC-KHII

FLIGHT INFORMATION

Flight Status: Arrived
Operator:
Sky High Charters
More flights by this operator :: More flights under this callsign
Pilot: Ian G. (41107)
Aircraft: SOCATA TBM-900
(TBM9)
More flights by this aircraft type
Origin: KPRC Love
United States
Destination: KHII Lake Havasu City
United States
More flights between these airports :: More routes between these airports
Route: WNSKI2 MUMTE V12 EED
File this flight plan on PilotEdge
Remarks: This SID looks like s...never mind, I love my job )
Altitude:
(Current/Filed)
12,000ft
Speed:
(Current/Filed)
285kts
Departed: 01-Aug-23 12:10 PM
Arrived: 01-Aug-23 12:49 PM
Distance/Time
Traveled:
96nm/0:39
Distance/Time
To Go:
Arrived

Flight Plot

Page will automatically refresh every two minutes.

Flight plan parsing failed; only flown route is shown


Map Options




Map Legend


Flown Route
Filed Route
Departure Airport
Arrival Airport
Navaid (VOR, NDB)
Fix

Horizontal Profiles

Position Reports

Time Latitude Longitude Heading Altitude Ground
Speed
01-Aug-23 12:00 34.651214 -112.420633 312 5016ft 0kts
01-Aug-23 12:01 34.651214 -112.420633 312 5016ft 0kts
01-Aug-23 12:02 34.651214 -112.420633 312 5016ft 0kts
01-Aug-23 12:03 34.651214 -112.420633 312 5016ft 0kts
01-Aug-23 12:04 34.651214 -112.420633 312 5016ft 0kts
01-Aug-23 12:05 34.651483 -112.420447 15 5014ft 0kts
01-Aug-23 12:06 34.654482 -112.417770 40 4998ft 24kts
01-Aug-23 12:07 34.658738 -112.412550 44 4974ft 16kts
01-Aug-23 12:08 34.661994 -112.411362 257 4959ft 17kts
01-Aug-23 12:09 34.642654 -112.432215 222 5862ft 142kts
01-Aug-23 12:10 34.618922 -112.407526 69 8000ft 176kts
01-Aug-23 12:11 34.608895 -112.351481 134 9798ft 201kts
01-Aug-23 12:12 34.572003 -112.299539 134 11870ft 204kts
01-Aug-23 12:13 34.512858 -112.288613 212 11933ft 256kts
01-Aug-23 12:14 34.472820 -112.362554 245 11928ft 269kts
01-Aug-23 12:15 34.454349 -112.451360 262 11912ft 274kts
01-Aug-23 12:16 34.458747 -112.543789 280 11893ft 277kts
01-Aug-23 12:17 34.486465 -112.631463 298 11873ft 282kts
01-Aug-23 12:18 34.535669 -112.705469 316 11860ft 284kts
01-Aug-23 12:19 34.602262 -112.757863 335 11840ft 288kts
01-Aug-23 12:20 34.678279 -112.788139 329 11807ft 286kts
01-Aug-23 12:21 34.717711 -112.865462 271 11762ft 276kts
01-Aug-23 12:22 34.721107 -112.958900 270 11767ft 276kts
01-Aug-23 12:23 34.724383 -113.052256 270 11754ft 278kts
01-Aug-23 12:24 34.727640 -113.145826 270 11747ft 276kts
01-Aug-23 12:25 34.730809 -113.238849 270 11729ft 276kts
01-Aug-23 12:26 34.733889 -113.332388 270 11722ft 276kts
01-Aug-23 12:27 34.736943 -113.425669 270 11711ft 277kts
01-Aug-23 12:28 34.739949 -113.519257 270 11699ft 277kts
01-Aug-23 12:29 34.742838 -113.612816 270 11694ft 277kts
01-Aug-23 12:30 34.745927 -113.710650 270 10335ft 294kts
01-Aug-23 12:31 34.748585 -113.808157 269 9674ft 275kts
01-Aug-23 12:32 34.751326 -113.900552 270 9670ft 275kts
01-Aug-23 12:33 34.753927 -113.993196 270 9688ft 271kts
01-Aug-23 12:34 34.756361 -114.083574 270 9977ft 270kts
01-Aug-23 12:35 34.758841 -114.175592 269 9969ft 274kts
01-Aug-23 12:36 34.761203 -114.268179 270 9969ft 274kts
01-Aug-23 12:37 34.763596 -114.362431 270 8718ft 278kts
01-Aug-23 12:38 34.765846 -114.455948 269 7295ft 273kts
01-Aug-23 12:39 34.776230 -114.541883 296 7036ft 251kts
01-Aug-23 12:40 34.831633 -114.591837 348 7036ft 258kts
01-Aug-23 12:41 34.880818 -114.545170 90 7024ft 248kts
01-Aug-23 12:42 34.839061 -114.491466 171 6596ft 248kts
01-Aug-23 12:43 34.773389 -114.476109 170 5204ft 236kts
01-Aug-23 12:44 34.710752 -114.452573 163 3866ft 233kts
01-Aug-23 12:45 34.656686 -114.425705 147 2681ft 187kts
01-Aug-23 12:46 34.615721 -114.393136 147 1777ft 173kts
01-Aug-23 12:47 34.580715 -114.365064 154 791ft 133kts
01-Aug-23 12:48 34.567805 -114.358427 115 767ft 10kts
01-Aug-23 12:49 34.567826 -114.358294 60 767ft 0kts
01-Aug-23 12:50 34.567826 -114.358294 60 767ft 0kts
01-Aug-23 12:51 34.567826 -114.358294 60 767ft 0kts
01-Aug-23 12:52 34.567826 -114.358294 60 767ft 0kts

Navigation Log

Ident Type
Flight plan parsing failed, navigation log unavailable